首页
METAR-TAF:

METAR-TAF

机场 :

大特尔诺沃, 保加利亚

纬度: 43-09N, 经度: 025-36E, 海拔: 87米

当前天气观测

该预报发布于28分钟前的12:30 UTC
风速4节,风向东北,在东南之间变化
温度 29°C
湿度 37%
气压 1011 hPa
能见度10公里或以上

METAR: LBGO 161230Z AUTO 05004KT 350V130 9999 NCD 29/13 Q1011 NOSIG

时间: 15:58 (12:58 UTC)

预报

该预报发布于1小时和58分钟前的11:00 UTC
预报有效从16日的 12点(UTC)到 17日的 12点(UTC)
风速4节,风向多变
能见度10公里或以上
1500米以下无云,无积雨云
短暂存在
从 16日的 12点(UTC)到 16日的 18点(UTC)
能見度: 5000
少量云层高于3000英尺, 积雨云.
散云层高于5000英尺
雷暴, 雨

TAF: LBGO 161100Z 1612/1712 VRB04KT CAVOK TEMPO 1612/1618 5000 TSRA FEW030CB SCT050

超过4000个机场的气象观测和天气预报(METAR&TAF报告)。

可查询的气象台以黄色和红色小点在地图上表示。

将鼠标移到小点上方,可查看气象台名称。

然后点击查看天气观测和预报。

如需切换地图:点击带黑十字的绿色按钮放大地图;点击带横线的绿色按钮缩小地图;或者点击绿色箭头查看邻近地区的地图。


METAR-TAF: